createdAt,value
2019-06-20T00:02:21.063Z,23.70
2019-06-20T00:04:50.036Z,23.20
2019-06-20T00:07:18.946Z,24.43
2019-06-20T00:09:47.899Z,23.83
2019-06-20T00:12:16.818Z,23.97
2019-06-20T00:14:45.779Z,24.70
2019-06-20T00:17:14.700Z,23.20
2019-06-20T00:19:43.661Z,23.30
2019-06-20T00:22:12.584Z,24.77
2019-06-20T00:24:41.540Z,25.43
2019-06-20T00:27:10.454Z,25.80
2019-06-20T00:29:39.422Z,23.80
2019-06-20T00:32:08.427Z,23.03
2019-06-20T00:34:37.387Z,24.53
2019-06-20T00:37:06.301Z,24.70
2019-06-20T00:39:35.272Z,22.10
2019-06-20T00:42:04.182Z,23.60
2019-06-20T00:44:33.119Z,26.70
2019-06-20T00:47:02.073Z,24.10
2019-06-20T00:49:30.986Z,22.07
2019-06-20T00:51:59.945Z,22.70
2019-06-20T00:54:28.892Z,21.93
2019-06-20T00:56:57.855Z,20.97
2019-06-20T00:59:26.780Z,26.97
2019-06-20T01:01:55.780Z,27.57
2019-06-20T01:04:24.697Z,26.63
2019-06-20T01:06:53.670Z,27.27
2019-06-20T01:09:22.616Z,27.03
2019-06-20T01:11:51.577Z,25.73
2019-06-20T01:14:20.509Z,27.33
2019-06-20T01:16:49.498Z,26.37
2019-06-20T01:19:18.655Z,27.33
2019-06-20T01:21:47.663Z,27.40
2019-06-20T01:24:16.585Z,24.50
2019-06-20T01:26:45.546Z,26.70
2019-06-20T01:29:14.464Z,24.50
2019-06-20T01:31:43.424Z,26.37
2019-06-20T01:34:12.336Z,25.33
2019-06-20T01:36:41.276Z,27.07
2019-06-20T01:39:10.182Z,27.43
2019-06-20T01:41:39.137Z,25.97
2019-06-20T01:44:08.050Z,26.80
2019-06-20T01:46:37.008Z,26.03
2019-06-20T01:49:06.330Z,28.37
2019-06-20T01:51:35.309Z,26.13
2019-06-20T01:54:04.222Z,26.97
2019-06-20T01:56:33.173Z,25.53
2019-06-20T01:59:02.107Z,25.60
2019-06-20T02:01:31.060Z,24.20
2019-06-20T02:04:00.017Z,23.80
2019-06-20T02:06:28.967Z,25.60
2019-06-20T02:08:57.894Z,26.90
2019-06-20T02:11:26.808Z,24.20
2019-06-20T02:14:06.900Z,23.83
2019-06-20T02:16:26.320Z,22.50
2019-06-20T02:18:55.265Z,23.07
2019-06-20T02:21:24.172Z,23.70
2019-06-20T02:23:53.133Z,21.40
2019-06-20T02:26:22.046Z,22.13
2019-06-20T02:28:50.999Z,21.63
2019-06-20T02:31:19.918Z,23.50
2019-06-20T02:33:48.863Z,23.43
2019-06-20T02:36:17.783Z,23.53
2019-06-20T02:38:46.733Z,24.20
2019-06-20T02:41:15.847Z,24.37
2019-06-20T02:43:44.805Z,23.30
2019-06-20T02:46:13.828Z,23.47
2019-06-20T02:48:42.788Z,23.67
2019-06-20T02:51:11.705Z,21.93
2019-06-20T02:53:40.670Z,17.77
2019-06-20T02:56:09.596Z,21.40
2019-06-20T02:58:38.556Z,22.00
2019-06-20T03:01:07.482Z,22.83
2019-06-20T03:03:36.438Z,20.73
2019-06-20T03:06:05.607Z,19.03
2019-06-20T03:08:34.674Z,20.83
2019-06-20T03:11:03.595Z,20.07
2019-06-20T03:13:32.541Z,19.03
2019-06-20T03:16:01.465Z,18.30
2019-06-20T03:18:30.416Z,19.97
2019-06-20T03:20:59.339Z,17.63
2019-06-20T03:23:28.303Z,16.73
2019-06-20T03:25:57.226Z,15.07
2019-06-20T03:28:26.144Z,15.30
2019-06-20T03:30:55.138Z,14.43
2019-06-20T03:33:24.151Z,16.10
2019-06-20T03:35:53.113Z,16.70
2019-06-20T03:38:22.018Z,16.87
2019-06-20T03:40:50.986Z,17.73
2019-06-20T03:43:19.923Z,16.63
2019-06-20T03:45:48.878Z,12.83
2019-06-20T03:48:17.794Z,12.20
2019-06-20T03:50:46.743Z,10.93
2019-06-20T03:53:15.671Z,11.10
2019-06-20T03:55:44.628Z,10.83
2019-06-20T03:58:13.555Z,9.93
2019-06-20T04:00:42.509Z,9.17
2019-06-20T04:03:11.435Z,9.17
2019-06-20T04:05:40.424Z,10.30
2019-06-20T04:08:09.342Z,9.00
2019-06-20T04:10:38.300Z,8.83
2019-06-20T04:13:07.212Z,9.43
2019-06-20T04:15:36.176Z,9.20
2019-06-20T04:18:05.100Z,8.90
2019-06-20T04:20:34.074Z,10.23
2019-06-20T04:23:02.975Z,9.70
2019-06-20T04:25:32.059Z,9.67
2019-06-20T04:28:01.033Z,9.53
2019-06-20T04:30:30.004Z,9.90
2019-06-20T04:32:58.920Z,10.20
2019-06-20T04:35:27.913Z,10.37
2019-06-20T04:37:56.920Z,9.80
2019-06-20T04:40:25.884Z,8.80
2019-06-20T04:42:54.886Z,9.83
2019-06-20T04:45:34.960Z,9.20
2019-06-20T04:47:58.999Z,7.87
2019-06-20T04:50:28.929Z,8.20
2019-06-20T04:52:57.871Z,7.77
2019-06-20T04:55:28.174Z,8.63
2019-06-20T04:57:57.130Z,7.90
2019-06-20T05:00:26.048Z,8.87
2019-06-20T05:02:55.000Z,7.97
2019-06-20T05:05:23.909Z,7.97
2019-06-20T05:07:52.872Z,8.00
2019-06-20T05:10:21.777Z,8.33
2019-06-20T05:12:50.722Z,9.57
2019-06-20T05:15:19.653Z,8.67
2019-06-20T05:17:48.584Z,8.80
2019-06-20T05:20:17.493Z,9.07
2019-06-20T05:22:46.443Z,8.93
2019-06-20T05:25:15.352Z,9.07
2019-06-20T05:27:44.406Z,8.73
2019-06-20T05:30:13.814Z,10.17
2019-06-20T05:32:42.802Z,9.77
2019-06-20T05:35:11.737Z,8.67
2019-06-20T05:37:40.700Z,9.50
2019-06-20T05:40:10.616Z,9.50
2019-06-20T05:42:39.616Z,9.53
2019-06-20T05:45:08.812Z,8.80
2019-06-20T05:47:37.768Z,9.77
2019-06-20T05:50:10.449Z,9.23
2019-06-20T05:52:39.410Z,9.53
2019-06-20T05:55:08.827Z,9.70
2019-06-20T05:57:37.766Z,9.47
2019-06-20T06:00:10.365Z,9.23
2019-06-20T06:02:40.223Z,8.40
2019-06-20T06:05:09.332Z,9.40
2019-06-20T06:07:38.288Z,9.57
2019-06-20T06:10:08.667Z,8.40
2019-06-20T06:12:37.619Z,8.07
2019-06-20T06:15:07.827Z,7.40
2019-06-20T06:17:36.752Z,8.17
2019-06-20T06:20:07.408Z,7.80
2019-06-20T06:22:36.367Z,7.30
2019-06-20T06:25:07.006Z,8.23
2019-06-20T06:27:35.998Z,6.87
2019-06-20T06:30:09.344Z,7.70
2019-06-20T06:32:40.284Z,7.10
2019-06-20T06:35:09.974Z,7.00
2019-06-20T06:37:39.279Z,5.90
2019-06-20T06:40:12.759Z,5.97
2019-06-20T06:42:41.669Z,6.20
2019-06-20T06:45:11.824Z,6.23
2019-06-20T06:47:40.760Z,6.07
2019-06-20T06:50:10.376Z,6.17
2019-06-20T06:52:39.285Z,5.83
2019-06-20T06:55:08.784Z,6.13
2019-06-20T06:57:39.367Z,6.13
2019-06-20T07:00:16.151Z,5.87
2019-06-20T07:02:45.067Z,6.87
2019-06-20T07:05:14.659Z,6.73
2019-06-20T07:07:43.575Z,6.83
2019-06-20T07:10:13.027Z,6.37
2019-06-20T07:12:41.942Z,7.23
2019-06-20T07:15:11.746Z,6.83
2019-06-20T07:17:40.644Z,7.27
2019-06-20T07:20:10.406Z,8.27
2019-06-20T07:22:39.320Z,8.47
2019-06-20T07:25:08.564Z,9.10
2019-06-20T07:27:37.507Z,9.70
2019-06-20T07:30:07.890Z,9.87
2019-06-20T07:32:36.900Z,9.73
2019-06-20T07:35:09.033Z,9.63
2019-06-20T07:37:37.939Z,9.37
2019-06-20T07:40:08.797Z,7.50
2019-06-20T07:42:37.939Z,6.97
2019-06-20T07:45:10.837Z,6.07
2019-06-20T07:47:39.934Z,6.53
2019-06-20T07:50:10.045Z,6.87
2019-06-20T07:52:39.022Z,7.30
2019-06-20T07:55:08.641Z,7.70
2019-06-20T07:57:37.688Z,5.63
2019-06-20T08:00:08.965Z,4.70
2019-06-20T08:02:38.361Z,4.90
2019-06-20T08:05:08.032Z,3.67
2019-06-20T08:07:36.993Z,3.77
2019-06-20T08:10:08.830Z,3.70
2019-06-20T08:12:37.775Z,3.00
2019-06-20T08:15:15.048Z,2.63
2019-06-20T08:17:40.293Z,2.60
2019-06-20T08:20:10.630Z,2.70
2019-06-20T08:22:39.677Z,3.67
2019-06-20T08:25:10.103Z,3.77
2019-06-20T08:27:51.766Z,3.87
2019-06-20T08:30:23.660Z,3.67
2019-06-20T08:32:52.910Z,4.40
2019-06-20T08:35:27.101Z,4.53
2019-06-20T08:37:57.840Z,5.00
2019-06-20T08:40:27.836Z,5.30
2019-06-20T08:42:58.425Z,5.77
2019-06-20T08:45:30.388Z,5.97
2019-06-20T08:48:00.149Z,6.10
2019-06-20T08:50:29.356Z,6.60
2019-06-20T08:52:59.702Z,7.13
2019-06-20T08:55:28.837Z,6.77
2019-06-20T08:57:59.719Z,7.73
2019-06-20T09:00:32.527Z,7.20
2019-06-20T09:03:04.825Z,8.43
2019-06-20T09:05:37.506Z,8.43
2019-06-20T09:08:11.433Z,9.23
2019-06-20T09:10:47.507Z,9.73
2019-06-20T09:13:40.610Z,10.83
2019-06-20T09:16:23.953Z,9.97
2019-06-20T09:18:46.997Z,12.00
2019-06-20T09:21:20.913Z,10.73
2019-06-20T09:23:53.821Z,10.83
2019-06-20T09:26:28.633Z,12.50
2019-06-20T09:28:59.295Z,12.07
2019-06-20T09:31:30.453Z,12.13
2019-06-20T09:34:09.088Z,12.17
2019-06-20T09:36:39.269Z,11.20
2019-06-20T09:39:09.233Z,12.63
2019-06-20T09:41:41.334Z,11.40
2019-06-20T09:44:10.999Z,10.37
2019-06-20T09:46:41.665Z,11.70
2019-06-20T09:49:13.063Z,11.03
2019-06-20T09:51:42.804Z,11.63
2019-06-20T09:54:11.949Z,11.67
2019-06-20T09:56:40.969Z,12.97
2019-06-20T09:59:26.478Z,12.47
2019-06-20T10:01:40.564Z,12.60
2019-06-20T10:04:09.866Z,13.47
2019-06-20T10:06:39.081Z,11.67
2019-06-20T10:09:09.225Z,11.73
2019-06-20T10:11:38.135Z,12.53
2019-06-20T10:14:07.698Z,10.23
2019-06-20T10:16:45.323Z,9.80
2019-06-20T10:19:07.212Z,10.13
2019-06-20T10:21:36.167Z,11.17
2019-06-20T10:24:05.109Z,11.50
2019-06-20T10:26:37.554Z,11.17
2019-06-20T10:29:05.418Z,10.90
2019-06-20T10:31:34.343Z,10.93
2019-06-20T10:34:03.309Z,10.60
2019-06-20T10:36:32.198Z,10.70
2019-06-20T10:39:01.155Z,10.27
2019-06-20T10:41:30.092Z,10.47
2019-06-20T10:43:59.061Z,10.27
2019-06-20T10:46:27.979Z,10.90
2019-06-20T10:48:56.933Z,11.43
2019-06-20T10:51:33.350Z,11.87
2019-06-20T10:54:02.613Z,11.63
2019-06-20T10:56:31.532Z,10.90
2019-06-20T10:59:00.489Z,10.40
2019-06-20T11:01:29.399Z,11.43
2019-06-20T11:03:58.313Z,11.40
2019-06-20T11:06:27.266Z,12.13
2019-06-20T11:08:56.185Z,13.03
2019-06-20T11:11:25.156Z,10.83
2019-06-20T11:13:54.050Z,12.03
2019-06-20T11:16:23.021Z,11.30
2019-06-20T11:18:51.930Z,11.27
2019-06-20T11:21:20.904Z,10.40
2019-06-20T11:23:49.843Z,9.90
2019-06-20T11:26:18.790Z,9.83
2019-06-20T11:28:48.742Z,10.33
2019-06-20T11:31:17.917Z,10.23
2019-06-20T11:33:46.828Z,9.13
2019-06-20T11:36:15.781Z,8.57
2019-06-20T11:38:44.702Z,8.70
2019-06-20T11:41:13.653Z,9.43
2019-06-20T11:43:42.568Z,8.60
2019-06-20T11:46:11.524Z,8.10
2019-06-20T11:48:40.607Z,8.23
2019-06-20T11:51:10.005Z,8.10
2019-06-20T11:53:38.892Z,8.47
2019-06-20T11:56:07.903Z,8.57
2019-06-20T11:58:36.789Z,8.07
2019-06-20T12:01:05.747Z,7.50
2019-06-20T12:03:34.704Z,6.80
2019-06-20T12:06:05.423Z,6.57
2019-06-20T12:08:34.926Z,6.67
2019-06-20T12:11:04.638Z,6.90
2019-06-20T12:13:35.283Z,7.10
2019-06-20T12:16:18.160Z,6.90
2019-06-20T12:18:47.449Z,7.30
2019-06-20T12:21:16.975Z,7.40
2019-06-20T12:23:46.933Z,7.10
2019-06-20T12:26:18.155Z,7.33
2019-06-20T12:28:48.669Z,6.87
2019-06-20T12:31:19.817Z,6.33
2019-06-20T12:33:50.135Z,6.73
2019-06-20T12:36:19.131Z,7.43
2019-06-20T12:38:48.408Z,6.77
2019-06-20T12:41:17.483Z,5.60
2019-06-20T12:43:46.427Z,5.83
2019-06-20T12:46:15.368Z,5.77
2019-06-20T12:48:45.047Z,6.43
2019-06-20T12:51:14.167Z,6.17
2019-06-20T12:53:44.146Z,6.33
2019-06-20T12:56:14.585Z,6.87
2019-06-20T12:58:44.508Z,6.60
2019-06-20T13:01:15.907Z,6.60
2019-06-20T13:03:46.315Z,6.00
2019-06-20T13:06:18.017Z,6.00
2019-06-20T13:08:47.345Z,6.17
2019-06-20T13:11:16.304Z,5.93
2019-06-20T13:13:46.485Z,6.57
2019-06-20T13:16:15.551Z,6.30
2019-06-20T13:18:44.687Z,6.13
2019-06-20T13:21:14.045Z,7.07
2019-06-20T13:23:45.031Z,6.40
2019-06-20T13:26:14.038Z,6.20
2019-06-20T13:29:00.693Z,5.90
2019-06-20T13:31:16.607Z,6.17
2019-06-20T13:33:46.765Z,6.10
2019-06-20T13:36:16.967Z,6.40
2019-06-20T13:38:46.704Z,7.27
2019-06-20T13:41:15.696Z,6.30
2019-06-20T13:43:44.654Z,6.60
2019-06-20T13:46:16.114Z,6.63
2019-06-20T13:48:47.906Z,6.10
2019-06-20T13:51:16.815Z,5.77
2019-06-20T13:53:46.352Z,5.37
2019-06-20T13:56:15.390Z,5.00
2019-06-20T13:58:44.826Z,4.90
2019-06-20T14:01:13.846Z,4.23
2019-06-20T14:03:44.072Z,4.93
2019-06-20T14:06:13.369Z,5.30
2019-06-20T14:08:42.908Z,4.40
2019-06-20T14:11:12.885Z,4.90
2019-06-20T14:13:43.087Z,4.70
2019-06-20T14:16:12.393Z,4.27
2019-06-20T14:18:42.597Z,4.10
2019-06-20T14:21:12.091Z,4.03
2019-06-20T14:23:42.475Z,5.70
2019-06-20T14:26:11.667Z,5.47
2019-06-20T14:28:42.525Z,4.93
2019-06-20T14:31:11.189Z,4.10
2019-06-20T14:33:40.103Z,4.17
2019-06-20T14:36:09.061Z,4.00
2019-06-20T14:38:38.009Z,3.60
2019-06-20T14:41:07.041Z,3.70
2019-06-20T14:43:36.052Z,3.70
2019-06-20T14:46:05.091Z,3.93
2019-06-20T14:48:33.986Z,3.77
2019-06-20T14:51:02.995Z,3.87
2019-06-20T14:53:31.942Z,4.03
2019-06-20T14:56:00.900Z,3.97
2019-06-20T14:58:29.826Z,4.33
2019-06-20T15:00:58.816Z,4.53
2019-06-20T15:03:27.727Z,4.27
2019-06-20T15:05:56.675Z,4.50
2019-06-20T15:08:25.597Z,4.40
2019-06-20T15:10:54.544Z,4.77
2019-06-20T15:13:23.463Z,4.73
2019-06-20T15:15:53.433Z,5.07
2019-06-20T15:18:22.520Z,4.20
2019-06-20T15:20:51.970Z,4.63
2019-06-20T15:23:22.047Z,4.80
2019-06-20T15:25:52.118Z,3.90
2019-06-20T15:28:21.229Z,4.13
2019-06-20T15:30:50.872Z,3.10
2019-06-20T15:33:19.990Z,3.30
2019-06-20T15:35:50.647Z,3.03
2019-06-20T15:38:19.519Z,3.33
2019-06-20T15:40:49.742Z,2.87
2019-06-20T15:43:19.011Z,3.27
2019-06-20T15:45:49.884Z,3.10
2019-06-20T15:48:18.530Z,3.27
2019-06-20T15:50:47.517Z,4.23
2019-06-20T15:53:16.419Z,3.63
2019-06-20T15:55:45.415Z,2.63
2019-06-20T15:58:14.402Z,2.70
2019-06-20T16:00:43.437Z,3.03
2019-06-20T16:03:14.503Z,2.80
2019-06-20T16:05:42.943Z,2.60
2019-06-20T16:08:11.853Z,2.53
2019-06-20T16:10:40.810Z,2.67
2019-06-20T16:13:09.711Z,2.80
2019-06-20T16:15:38.668Z,2.87
2019-06-20T16:18:07.574Z,3.00
2019-06-20T16:20:36.525Z,3.30
2019-06-20T16:23:05.466Z,3.40
2019-06-20T16:25:34.410Z,3.20
2019-06-20T16:28:03.447Z,2.80
2019-06-20T16:30:33.831Z,2.80
2019-06-20T16:33:02.837Z,3.17
2019-06-20T16:35:31.802Z,2.67
2019-06-20T16:38:02.308Z,2.97
2019-06-20T16:40:43.192Z,2.83
2019-06-20T16:43:12.371Z,2.90
2019-06-20T16:45:41.324Z,2.70
2019-06-20T16:48:10.627Z,2.40
2019-06-20T16:50:39.839Z,2.37
2019-06-20T16:53:08.952Z,2.33
2019-06-20T16:55:37.951Z,2.33
2019-06-20T16:58:06.904Z,2.13
2019-06-20T17:00:35.924Z,2.00
2019-06-20T17:03:05.871Z,2.47
2019-06-20T17:05:34.799Z,2.30
2019-06-20T17:08:03.751Z,2.13
2019-06-20T17:10:32.646Z,1.97
2019-06-20T17:13:01.606Z,2.20
2019-06-20T17:15:30.511Z,2.40
2019-06-20T17:17:59.458Z,2.03
2019-06-20T17:20:28.387Z,2.07
2019-06-20T17:22:57.472Z,2.33
2019-06-20T17:25:26.586Z,2.20
2019-06-20T17:27:55.637Z,2.20
2019-06-20T17:30:24.718Z,1.90
2019-06-20T17:32:58.315Z,2.30
2019-06-20T17:35:27.583Z,2.00
2019-06-20T17:37:56.523Z,1.90
2019-06-20T17:40:25.835Z,1.73
2019-06-20T17:42:54.815Z,2.07
2019-06-20T17:45:24.928Z,1.80
2019-06-20T17:47:53.884Z,2.00
2019-06-20T17:50:25.711Z,2.10
2019-06-20T17:52:53.562Z,2.17
2019-06-20T17:55:22.793Z,2.30
2019-06-20T17:57:51.855Z,1.90
2019-06-20T18:00:21.966Z,2.13
2019-06-20T18:02:50.913Z,2.43
2019-06-20T18:05:19.858Z,2.10
2019-06-20T18:07:48.968Z,2.60
2019-06-20T18:10:18.867Z,2.77
2019-06-20T18:12:48.790Z,2.43
2019-06-20T18:15:18.247Z,2.60
2019-06-20T18:17:47.202Z,2.83
2019-06-20T18:20:16.323Z,2.63
2019-06-20T18:22:47.583Z,2.70
2019-06-20T18:25:16.636Z,2.90
2019-06-20T18:27:45.602Z,2.90
2019-06-20T18:30:14.909Z,2.80
2019-06-20T18:32:43.922Z,3.10
2019-06-20T18:35:13.398Z,3.13
2019-06-20T18:37:42.337Z,3.23
2019-06-20T18:40:11.874Z,2.70
2019-06-20T18:42:40.819Z,3.10
2019-06-20T18:45:11.201Z,2.73
2019-06-20T18:47:40.146Z,2.70
2019-06-20T18:50:09.787Z,2.70
2019-06-20T18:52:51.542Z,3.03
2019-06-20T18:55:09.702Z,3.33
2019-06-20T18:57:38.639Z,2.80
2019-06-20T19:00:09.539Z,2.80
2019-06-20T19:02:38.499Z,2.87
2019-06-20T19:05:08.316Z,3.07
2019-06-20T19:07:37.261Z,3.33
2019-06-20T19:10:09.388Z,3.10
2019-06-20T19:12:38.437Z,3.37
2019-06-20T19:15:11.243Z,2.63
2019-06-20T19:17:40.283Z,3.23
2019-06-20T19:20:09.784Z,3.10
2019-06-20T19:22:38.756Z,3.00
2019-06-20T19:25:08.355Z,3.30
2019-06-20T19:27:46.015Z,3.30
2019-06-20T19:30:10.355Z,3.60
2019-06-20T19:32:39.439Z,3.20
2019-06-20T19:35:10.307Z,3.67
2019-06-20T19:37:39.508Z,3.50
2019-06-20T19:40:10.062Z,3.30
2019-06-20T19:42:38.963Z,3.47
2019-06-20T19:45:10.780Z,3.60
2019-06-20T19:47:40.079Z,3.60
2019-06-20T19:50:09.629Z,4.57
2019-06-20T19:52:38.644Z,3.97
2019-06-20T19:55:08.110Z,4.60
2019-06-20T19:57:37.087Z,4.20
2019-06-20T20:00:07.917Z,4.37
2019-06-20T20:02:36.823Z,3.97
2019-06-20T20:05:18.311Z,4.70
2019-06-20T20:07:38.034Z,4.10
2019-06-20T20:10:08.471Z,4.20
2019-06-20T20:12:37.381Z,3.87
2019-06-20T20:15:10.237Z,4.37
2019-06-20T20:17:39.148Z,4.47
2019-06-20T20:20:08.913Z,4.20
2019-06-20T20:22:37.799Z,4.60
2019-06-20T20:25:08.362Z,3.80
2019-06-20T20:27:37.271Z,3.63
2019-06-20T20:30:09.433Z,3.77
2019-06-20T20:32:38.344Z,3.77
2019-06-20T20:35:07.308Z,3.93
2019-06-20T20:37:36.815Z,4.30
2019-06-20T20:40:07.625Z,4.10
2019-06-20T20:42:36.554Z,3.90
2019-06-20T20:45:07.482Z,4.30
2019-06-20T20:47:36.381Z,3.63
2019-06-20T20:50:06.800Z,4.50
2019-06-20T20:52:35.704Z,4.20
2019-06-20T20:55:09.303Z,3.90
2019-06-20T20:57:38.220Z,4.00
2019-06-20T21:00:15.689Z,3.90
2019-06-20T21:02:44.602Z,3.93
2019-06-20T21:05:13.557Z,3.97
2019-06-20T21:07:42.456Z,3.90
2019-06-20T21:10:12.908Z,3.60
2019-06-20T21:12:41.855Z,4.13
2019-06-20T21:15:10.807Z,4.33
2019-06-20T21:17:39.732Z,3.77
2019-06-20T21:20:09.970Z,3.40
2019-06-20T21:22:38.894Z,3.70
2019-06-20T21:25:08.049Z,3.80
2019-06-20T21:27:36.966Z,3.80
2019-06-20T21:30:09.941Z,4.20
2019-06-20T21:32:38.853Z,3.90
2019-06-20T21:35:09.314Z,3.93
2019-06-20T21:37:38.226Z,3.80
2019-06-20T21:40:08.557Z,4.07
2019-06-20T21:42:37.496Z,4.53
2019-06-20T21:45:08.106Z,4.53
2019-06-20T21:47:37.171Z,4.33
2019-06-20T21:50:07.749Z,4.17
2019-06-20T21:52:36.699Z,4.37
2019-06-20T21:55:09.023Z,3.57
2019-06-20T21:57:38.041Z,3.97
2019-06-20T22:00:22.553Z,3.90
2019-06-20T22:02:51.738Z,4.20
2019-06-20T22:05:20.659Z,4.40
2019-06-20T22:07:49.618Z,4.43
2019-06-20T22:10:18.865Z,4.33
2019-06-20T22:12:47.875Z,4.50
2019-06-20T22:15:16.984Z,4.60
2019-06-20T22:17:45.937Z,5.00
2019-06-20T22:20:15.433Z,4.20
2019-06-20T22:22:44.396Z,4.53
2019-06-20T22:25:13.490Z,4.27
2019-06-20T22:27:42.447Z,4.30
2019-06-20T22:30:12.344Z,3.60
2019-06-20T22:32:41.308Z,4.40
2019-06-20T22:35:10.817Z,4.43
2019-06-20T22:37:39.793Z,4.43
2019-06-20T22:40:11.044Z,4.60
2019-06-20T22:42:40.015Z,4.47
2019-06-20T22:45:09.810Z,4.70
2019-06-20T22:47:38.762Z,4.40
2019-06-20T22:50:08.167Z,4.30
2019-06-20T22:52:37.138Z,4.97
2019-06-20T22:55:07.167Z,4.73
2019-06-20T22:57:36.133Z,5.00
2019-06-20T23:00:08.155Z,5.17
2019-06-20T23:02:37.049Z,5.17
2019-06-20T23:05:09.118Z,4.63
2019-06-20T23:07:38.115Z,5.00
2019-06-20T23:10:10.928Z,5.17
2019-06-20T23:12:38.210Z,5.40
2019-06-20T23:15:07.768Z,4.97
2019-06-20T23:17:36.676Z,4.80
2019-06-20T23:20:08.088Z,6.10
2019-06-20T23:22:36.987Z,5.20
2019-06-20T23:25:09.622Z,5.43
2019-06-20T23:27:38.523Z,6.10
2019-06-20T23:30:11.156Z,5.50
2019-06-20T23:32:40.073Z,5.53
2019-06-20T23:35:09.686Z,5.50
2019-06-20T23:37:38.665Z,5.77
2019-06-20T23:40:11.284Z,6.83
2019-06-20T23:42:40.250Z,6.17
2019-06-20T23:45:11.705Z,6.17
2019-06-20T23:47:40.632Z,6.53
2019-06-20T23:50:12.144Z,6.50
2019-06-20T23:52:42.646Z,6.40
2019-06-20T23:55:11.586Z,6.43
2019-06-20T23:57:40.508Z,6.43
